createdAt,value
2022-12-15T00:01:51.829Z,79.38
2022-12-15T00:07:14.695Z,79.39
2022-12-15T00:12:38.970Z,79.46
2022-12-15T00:18:03.245Z,79.35
2022-12-15T00:23:31.587Z,79.33
2022-12-15T00:28:56.342Z,79.30
2022-12-15T00:34:20.188Z,79.51
2022-12-15T00:39:25.622Z,79.35
2022-12-15T00:44:30.237Z,79.33
2022-12-15T00:49:54.085Z,79.28
2022-12-15T00:55:17.891Z,79.18
2022-12-15T01:00:42.638Z,79.11
2022-12-15T01:06:04.980Z,79.05
2022-12-15T01:11:28.236Z,79.33
2022-12-15T01:16:52.113Z,79.47
2022-12-15T01:21:57.141Z,79.71
2022-12-15T01:27:02.440Z,79.64
2022-12-15T01:32:07.045Z,79.53
2022-12-15T01:37:11.494Z,79.50
2022-12-15T01:42:16.546Z,79.67
2022-12-15T01:47:26.077Z,79.52
2022-12-15T01:52:31.504Z,79.63
2022-12-15T01:57:38.296Z,79.59
2022-12-15T02:02:43.056Z,79.62
2022-12-15T02:07:47.032Z,79.84
2022-12-15T02:13:07.493Z,79.77
2022-12-15T02:18:23.294Z,79.67
2022-12-15T02:23:53.235Z,79.66
2022-12-15T02:29:09.311Z,79.72
2022-12-15T02:34:24.363Z,79.84
2022-12-15T02:39:29.868Z,79.79
2022-12-15T02:44:54.988Z,79.82
2022-12-15T02:50:31.492Z,79.94
2022-12-15T02:55:40.742Z,79.87
2022-12-15T03:00:59.148Z,79.75
2022-12-15T03:06:06.244Z,79.45
2022-12-15T03:11:12.486Z,79.80
2022-12-15T03:16:17.086Z,79.71
2022-12-15T03:21:22.307Z,79.85
2022-12-15T03:26:26.945Z,79.79
2022-12-15T03:31:30.670Z,79.66
2022-12-15T03:36:35.530Z,79.57
2022-12-15T03:41:40.317Z,79.60
2022-12-15T03:46:46.006Z,79.70
2022-12-15T03:51:49.507Z,79.97
2022-12-15T03:56:54.494Z,79.75
2022-12-15T04:01:59.921Z,79.98
2022-12-15T04:07:04.926Z,79.99
2022-12-15T04:12:13.194Z,80.06
2022-12-15T04:17:18.257Z,79.88
2022-12-15T04:22:21.919Z,79.94
2022-12-15T04:27:46.316Z,80.00
2022-12-15T04:33:11.195Z,79.92
2022-12-15T04:38:34.167Z,79.96
2022-12-15T04:44:00.082Z,79.84
2022-12-15T04:49:23.663Z,79.73
2022-12-15T04:54:47.256Z,79.78
2022-12-15T05:00:11.891Z,79.80
2022-12-15T05:05:34.448Z,79.93
2022-12-15T05:10:56.527Z,80.20
2022-12-15T05:16:18.463Z,79.97
2022-12-15T05:21:41.319Z,80.22
2022-12-15T05:27:05.146Z,80.29
2022-12-15T05:32:10.233Z,80.15
2022-12-15T05:37:14.612Z,80.09
2022-12-15T05:42:19.272Z,80.25
2022-12-15T05:47:24.238Z,79.83
2022-12-15T05:52:27.762Z,79.96
2022-12-15T05:57:31.615Z,80.23
2022-12-15T06:02:36.354Z,80.47
2022-12-15T06:07:40.630Z,80.53
2022-12-15T06:12:45.496Z,80.61
2022-12-15T06:17:49.931Z,80.19
2022-12-15T06:22:53.936Z,80.10
2022-12-15T06:28:01.710Z,80.36
2022-12-15T06:33:07.917Z,80.29
2022-12-15T06:38:12.647Z,80.46
2022-12-15T06:43:17.527Z,80.45
2022-12-15T06:48:21.867Z,80.49
2022-12-15T06:53:26.144Z,80.38
2022-12-15T06:58:31.248Z,80.52
2022-12-15T07:03:37.353Z,80.62
2022-12-15T07:08:42.110Z,80.30
2022-12-15T07:13:50.132Z,80.26
2022-12-15T07:18:54.512Z,80.58
2022-12-15T07:23:59.171Z,80.59
2022-12-15T07:29:04.720Z,80.57
2022-12-15T07:34:09.877Z,80.50
2022-12-15T07:39:13.798Z,80.34
2022-12-15T07:44:19.243Z,80.43
2022-12-15T07:52:44.859Z,80.47
2022-12-15T07:57:49.075Z,80.18
2022-12-15T08:02:53.230Z,80.48
2022-12-15T08:07:59.173Z,80.41
2022-12-15T08:13:04.079Z,80.30
2022-12-15T08:18:09.797Z,80.34
2022-12-15T08:23:14.945Z,80.22
2022-12-15T08:28:19.066Z,80.37
2022-12-15T08:33:23.997Z,80.57
2022-12-15T08:38:28.255Z,80.36
2022-12-15T08:43:33.998Z,80.15
2022-12-15T08:48:39.209Z,79.94
2022-12-15T08:53:44.610Z,79.91
2022-12-15T08:58:51.174Z,80.21
2022-12-15T09:03:57.718Z,80.12
2022-12-15T09:09:05.182Z,79.95
2022-12-15T09:14:10.192Z,79.99
2022-12-15T09:19:15.118Z,79.70
2022-12-15T09:24:28.883Z,79.68
2022-12-15T09:29:38.699Z,79.67
2022-12-15T09:34:42.853Z,79.58
2022-12-15T09:39:46.734Z,79.20
2022-12-15T09:45:00.270Z,79.33
2022-12-15T09:50:11.319Z,79.16
2022-12-15T09:55:24.419Z,79.34
2022-12-15T10:00:52.576Z,78.94
2022-12-15T10:06:22.287Z,78.90
2022-12-15T10:11:50.635Z,78.44
2022-12-15T10:17:19.048Z,78.89
2022-12-15T10:22:31.883Z,78.34
2022-12-15T10:27:58.719Z,78.69
2022-12-15T10:33:06.591Z,78.33
2022-12-15T10:38:53.029Z,78.14
2022-12-15T10:43:59.072Z,77.85
2022-12-15T10:49:09.755Z,78.09
2022-12-15T10:54:16.809Z,78.26
2022-12-15T10:59:34.533Z,77.69
2022-12-15T11:04:38.865Z,77.40
2022-12-15T11:09:43.454Z,76.96
2022-12-15T11:14:52.467Z,77.33
2022-12-15T11:20:03.844Z,77.20
2022-12-15T11:25:36.614Z,76.75
2022-12-15T11:30:48.423Z,76.57
2022-12-15T11:36:20.813Z,76.25
2022-12-15T11:41:43.840Z,76.42
2022-12-15T11:46:57.710Z,76.19
2022-12-15T11:52:11.340Z,76.06
2022-12-15T11:57:42.014Z,76.11
2022-12-15T12:03:09.661Z,76.03
2022-12-15T12:08:36.506Z,76.18
2022-12-15T12:13:59.353Z,76.15
2022-12-15T12:19:21.170Z,76.11
2022-12-15T12:24:32.893Z,75.87
2022-12-15T12:30:01.246Z,75.84
2022-12-15T12:35:30.344Z,75.74
2022-12-15T12:40:41.195Z,75.47
2022-12-15T12:46:26.512Z,75.50
2022-12-15T12:51:34.984Z,75.37
2022-12-15T12:56:43.854Z,75.25
2022-12-15T13:01:49.693Z,75.09
2022-12-15T13:06:56.512Z,75.29
2022-12-15T13:12:34.298Z,75.58
2022-12-15T13:17:43.044Z,75.48
2022-12-15T13:22:50.520Z,75.54
2022-12-15T13:28:01.639Z,75.34
2022-12-15T13:33:19.811Z,75.44
2022-12-15T13:38:44.097Z,75.66
2022-12-15T13:43:50.507Z,75.50
2022-12-15T13:49:08.168Z,75.61
2022-12-15T13:54:19.436Z,75.78
2022-12-15T14:00:08.396Z,75.58
2022-12-15T14:05:13.689Z,75.58
2022-12-15T14:10:21.969Z,75.92
2022-12-15T14:15:30.649Z,76.11
2022-12-15T14:20:42.219Z,76.17
2022-12-15T14:25:56.545Z,76.11
2022-12-15T14:31:05.634Z,76.28
2022-12-15T14:36:13.880Z,76.33
2022-12-15T14:41:41.131Z,76.46
2022-12-15T14:46:50.210Z,76.31
2022-12-15T14:52:07.331Z,76.39
2022-12-15T14:57:26.211Z,76.46
2022-12-15T15:02:31.186Z,76.68
2022-12-15T15:07:39.597Z,76.69
2022-12-15T15:12:46.343Z,76.77
2022-12-15T15:17:53.481Z,76.88
2022-12-15T15:23:12.562Z,76.79
2022-12-15T15:28:30.135Z,77.10
2022-12-15T15:33:35.412Z,77.23
2022-12-15T15:38:41.210Z,77.09
2022-12-15T15:43:44.781Z,77.12
2022-12-15T15:48:50.161Z,76.77
2022-12-15T15:53:58.549Z,76.88
2022-12-15T15:59:11.653Z,76.66
2022-12-15T16:04:15.093Z,76.73
2022-12-15T16:09:19.946Z,76.76
2022-12-15T16:14:24.431Z,76.90
2022-12-15T16:19:30.226Z,76.87
2022-12-15T16:24:37.610Z,76.69
2022-12-15T16:29:43.364Z,76.52
2022-12-15T16:34:47.516Z,76.74
2022-12-15T16:39:51.409Z,76.71
2022-12-15T16:44:56.417Z,76.87
2022-12-15T16:50:00.701Z,76.86
2022-12-15T16:55:05.705Z,76.89
2022-12-15T17:00:25.943Z,76.66
2022-12-15T17:05:34.880Z,76.54
2022-12-15T17:10:38.876Z,76.41
2022-12-15T17:15:43.267Z,76.38
2022-12-15T17:20:48.173Z,76.87
2022-12-15T17:31:25.971Z,76.91
2022-12-15T17:36:31.786Z,76.73
2022-12-15T17:41:58.611Z,76.70
2022-12-15T17:46:59.958Z,76.44
2022-12-15T17:52:17.110Z,76.47
2022-12-15T17:57:20.704Z,76.53
2022-12-15T18:02:24.811Z,76.18
2022-12-15T18:07:28.761Z,76.08
2022-12-15T18:12:32.560Z,75.84
2022-12-15T18:17:36.866Z,75.50
2022-12-15T18:22:40.898Z,75.46
2022-12-15T18:27:46.303Z,75.41
2022-12-15T18:32:56.654Z,75.43
2022-12-15T18:38:01.964Z,75.13
2022-12-15T18:43:17.561Z,74.98
2022-12-15T18:48:25.653Z,74.52
2022-12-15T18:53:33.026Z,74.17
2022-12-15T18:58:42.917Z,74.37
2022-12-15T19:03:46.646Z,74.64
2022-12-15T19:08:51.760Z,73.76
2022-12-15T19:13:56.946Z,73.68
2022-12-15T19:19:20.031Z,73.88
2022-12-15T19:24:49.622Z,74.30
2022-12-15T19:29:55.112Z,74.22
2022-12-15T19:34:59.838Z,74.20
2022-12-15T19:40:07.448Z,74.06
2022-12-15T19:45:15.918Z,73.75
2022-12-15T19:50:26.376Z,73.18
2022-12-15T19:55:34.151Z,73.50
2022-12-15T20:00:40.608Z,73.97
2022-12-15T20:05:45.526Z,74.02
2022-12-15T20:10:52.083Z,73.41
2022-12-15T20:15:57.095Z,73.00
2022-12-15T20:21:02.190Z,73.05
2022-12-15T20:26:08.105Z,73.48
2022-12-15T20:31:18.900Z,73.88
2022-12-15T20:36:27.603Z,73.72
2022-12-15T20:41:32.128Z,73.04
2022-12-15T20:46:37.543Z,73.01
2022-12-15T20:51:42.985Z,73.29
2022-12-15T20:56:48.190Z,73.75
2022-12-15T21:01:53.311Z,73.14
2022-12-15T21:07:00.432Z,73.35
2022-12-15T21:12:25.677Z,73.73
2022-12-15T21:17:31.646Z,74.07
2022-12-15T21:22:36.321Z,73.91
2022-12-15T21:27:41.096Z,74.37
2022-12-15T21:32:47.151Z,74.80
2022-12-15T21:37:53.431Z,75.12
2022-12-15T21:43:06.826Z,75.36
2022-12-15T21:48:31.729Z,75.35
2022-12-15T21:53:36.610Z,75.81
2022-12-15T21:58:42.329Z,75.40
2022-12-15T22:03:54.630Z,75.89
2022-12-15T22:09:00.453Z,75.77
2022-12-15T22:14:35.502Z,75.86
2022-12-15T22:19:39.828Z,76.06
2022-12-15T22:24:44.637Z,76.30
2022-12-15T22:29:49.777Z,76.70
2022-12-15T22:34:53.715Z,76.72
2022-12-15T22:39:57.072Z,76.98
2022-12-15T22:45:00.633Z,77.08
2022-12-15T22:50:07.156Z,77.10
2022-12-15T22:55:16.658Z,77.04
2022-12-15T23:00:22.024Z,76.84
2022-12-15T23:05:27.268Z,76.77
2022-12-15T23:10:50.472Z,76.72
2022-12-15T23:16:14.777Z,77.36
2022-12-15T23:21:22.925Z,77.32
2022-12-15T23:26:28.202Z,77.37
2022-12-15T23:31:33.036Z,77.40
2022-12-15T23:36:38.085Z,77.56
2022-12-15T23:41:43.332Z,77.67
2022-12-15T23:46:48.902Z,77.66
2022-12-15T23:51:52.886Z,77.71
2022-12-15T23:56:59.579Z,77.69
